Time;durP1;ratioP1;P1;durP2;ratioP2;P2;SDS_P1;SDS_P2;PMS_P1;PMS_P2;Temp;Humidity;BMP_temperature;BMP_pressure;BME280_temperature;BME280_humidity;BME280_pressure;Samples;Min_cycle;Max_cycle;Signal;HPM_P1;HPM_P2
2022/01/31 00:03:43;;;;;;;14.13;6.70;;;3.50;99.90;;;;;;5078321;28;20528;-92
2022/01/31 00:06:14;;;;;;;10.80;6.97;;;3.50;99.90;;;;;;5079931;28;20443;-93
2022/01/31 00:08:52;;;;;;;18.10;6.90;;;3.60;99.90;;;;;;5073944;28;20471;-93
2022/01/31 00:11:26;;;;;;;11.87;7.37;;;3.60;99.90;;;;;;5071271;28;20518;-93
2022/01/31 00:19:54;;;;;;;16.27;7.83;;;3.80;99.90;;;;;;5076446;28;20512;-92
2022/01/31 00:28:50;;;;;;;12.33;5.83;;;3.90;99.90;;;;;;5053994;28;20451;-94
2022/01/31 00:31:31;;;;;;;11.53;6.53;;;3.90;99.90;;;;;;5076755;28;20483;-92
2022/01/31 00:34:05;;;;;;;11.73;6.03;;;4.00;99.90;;;;;;5073149;28;20470;-93
2022/01/31 00:36:35;;;;;;;13.30;7.23;;;4.00;99.90;;;;;;5078947;28;20478;-91
2022/01/31 00:39:14;;;;;;;17.53;6.50;;;4.00;99.90;;;;;;5076801;28;20490;-93
2022/01/31 00:41:52;;;;;;;15.20;6.20;;;4.00;99.90;;;;;;5072214;28;20520;-93
2022/01/31 00:44:29;;;;;;;12.77;6.07;;;4.10;99.90;;;;;;5073440;28;20500;-92
2022/01/31 00:49:52;;;;;;;20.70;7.97;;;4.20;99.90;;;;;;5075693;28;20460;-93
2022/01/31 00:56:10;;;;;;;10.93;5.20;;;4.20;99.90;;;;;;5050825;28;20449;-93
2022/01/31 00:58:48;;;;;;;17.50;7.87;;;4.20;99.90;;;;;;5074473;28;20472;-93
2022/01/31 04:27:27;;;;;;;11.23;4.43;;;4.50;99.90;;;;;;5017671;28;20530;-93
2022/01/31 04:30:15;;;;;;;9.13;5.43;;;4.40;99.90;;;;;;5018686;28;20467;-93
2022/01/31 04:32:53;;;;;;;16.47;6.17;;;4.50;99.90;;;;;;5017301;28;20493;-93
2022/01/31 04:35:28;;;;;;;10.20;6.20;;;4.50;99.90;;;;;;5013886;28;20524;-93
2022/01/31 04:38:01;;;;;;;7.13;4.10;;;4.50;99.90;;;;;;5016280;28;20435;-93
2022/01/31 04:40:41;;;;;;;6.80;5.90;;;4.50;99.90;;;;;;5014313;28;20454;-92
2022/01/31 04:43:18;;;;;;;8.33;5.07;;;4.50;99.90;;;;;;5019693;28;20431;-93
2022/01/31 04:45:48;;;;;;;7.23;4.90;;;4.50;99.90;;;;;;5069641;22;20526;-90
2022/01/31 04:48:23;;;;;;;8.93;5.00;;;4.50;99.90;;;;;;5057668;28;20538;-91
2022/01/31 04:50:50;;;;;;;9.40;5.50;;;4.50;99.90;;;;;;5056850;28;20453;-90
2022/01/31 04:53:17;;;;;;;12.63;5.63;;;4.50;99.90;;;;;;5059211;28;20457;-91
2022/01/31 04:55:44;;;;;;;10.63;5.40;;;4.50;99.90;;;;;;5049600;28;20482;-91
2022/01/31 04:58:12;;;;;;;9.87;6.10;;;4.50;99.90;;;;;;5046294;28;20446;-90
2022/01/31 05:00:40;;;;;;;11.20;4.90;;;4.50;99.90;;;;;;5041211;28;20454;-90
2022/01/31 05:03:12;;;;;;;10.77;5.00;;;4.50;99.90;;;;;;5039219;28;20452;-90
2022/01/31 05:05:39;;;;;;;11.70;4.87;;;4.50;99.90;;;;;;5039172;28;20486;-90
2022/01/31 05:08:06;;;;;;;8.90;6.03;;;4.50;99.90;;;;;;5036247;28;20509;-90
2022/01/31 05:10:34;;;;;;;10.53;5.57;;;4.50;99.90;;;;;;5037023;28;20460;-90
2022/01/31 05:13:01;;;;;;;9.03;4.43;;;4.50;99.90;;;;;;5040671;28;20448;-90
2022/01/31 05:15:30;;;;;;;7.70;4.13;;;4.50;99.90;;;;;;5037205;28;20470;-90
2022/01/31 05:17:57;;;;;;;10.67;4.73;;;4.60;99.90;;;;;;5036873;28;20460;-90
2022/01/31 05:20:24;;;;;;;9.90;4.43;;;4.60;99.90;;;;;;5043294;28;20452;-90
2022/01/31 05:22:51;;;;;;;10.67;4.87;;;4.70;99.90;;;;;;5044077;28;20446;-90
2022/01/31 05:25:17;;;;;;;9.03;4.90;;;4.70;99.90;;;;;;5044478;28;20457;-91
2022/01/31 05:27:44;;;;;;;19.43;5.67;;;4.80;99.90;;;;;;5058037;28;20519;-92
2022/01/31 05:30:12;;;;;;;7.80;4.87;;;4.80;99.90;;;;;;5044524;28;20459;-90
2022/01/31 05:32:40;;;;;;;9.30;6.70;;;4.80;99.90;;;;;;5038152;28;20458;-90
2022/01/31 05:35:07;;;;;;;12.13;5.53;;;4.80;99.90;;;;;;5046913;28;20517;-91
2022/01/31 05:37:35;;;;;;;11.77;5.57;;;4.80;99.90;;;;;;5057648;28;20432;-91
2022/01/31 05:40:10;;;;;;;9.40;5.43;;;4.80;99.90;;;;;;5048618;28;20453;-91
2022/01/31 05:42:40;;;;;;;7.20;4.77;;;4.80;99.90;;;;;;5049029;28;20471;-91
2022/01/31 05:45:08;;;;;;;9.87;4.80;;;4.80;99.90;;;;;;5055327;28;20515;-88
2022/01/31 05:47:35;;;;;;;11.30;6.57;;;4.90;99.90;;;;;;5051631;28;21259;-89
2022/01/31 05:50:05;;;;;;;8.97;4.93;;;4.90;99.90;;;;;;5054516;28;20473;-89
2022/01/31 05:52:32;;;;;;;10.63;5.60;;;4.90;99.90;;;;;;5051719;28;20472;-89
2022/01/31 05:55:00;;;;;;;7.90;4.70;;;5.00;99.90;;;;;;5037558;28;20465;-87
2022/01/31 05:57:26;;;;;;;10.63;5.37;;;5.00;99.90;;;;;;5034080;28;20454;-89
2022/01/31 05:59:53;;;;;;;10.77;4.90;;;5.00;99.90;;;;;;5034218;28;20457;-88
2022/01/31 06:02:20;;;;;;;9.20;4.60;;;5.00;99.90;;;;;;5033989;28;20438;-89
2022/01/31 06:04:47;;;;;;;6.20;4.10;;;5.00;99.90;;;;;;5035993;28;20572;-86
2022/01/31 06:07:15;;;;;;;10.37;4.30;;;5.00;99.90;;;;;;5054458;28;20445;-89
2022/01/31 06:09:42;;;;;;;10.93;4.77;;;5.00;99.90;;;;;;5057150;28;20432;-88
2022/01/31 06:12:11;;;;;;;12.60;4.33;;;5.00;99.90;;;;;;5052301;28;20447;-90
2022/01/31 06:14:39;;;;;;;10.83;6.43;;;5.10;99.90;;;;;;5043498;28;20469;-90
2022/01/31 06:17:06;;;;;;;7.70;3.80;;;5.20;99.90;;;;;;5050523;28;20449;-89
2022/01/31 06:19:32;;;;;;;8.43;3.90;;;5.30;99.90;;;;;;5052220;28;20438;-88
2022/01/31 06:21:59;;;;;;;6.60;3.60;;;5.40;99.90;;;;;;5042837;28;20442;-91
2022/01/31 06:24:28;;;;;;;6.10;3.70;;;5.50;99.90;;;;;;5034230;28;20453;-91
2022/01/31 06:26:54;;;;;;;7.30;3.80;;;5.50;99.90;;;;;;5040045;28;20456;-87
2022/01/31 06:29:23;;;;;;;9.50;3.70;;;5.50;99.90;;;;;;5035965;28;20433;-90
2022/01/31 06:31:50;;;;;;;11.20;4.33;;;5.50;99.90;;;;;;5041017;28;20833;-88
2022/01/31 06:34:18;;;;;;;8.23;3.90;;;5.40;99.90;;;;;;5040095;28;20786;-88
2022/01/31 06:36:45;;;;;;;7.10;4.50;;;5.40;99.90;;;;;;5037398;28;20463;-88
2022/01/31 06:39:12;;;;;;;8.90;5.03;;;5.40;99.90;;;;;;5041939;28;20526;-89
2022/01/31 06:41:40;;;;;;;11.30;4.07;;;5.30;99.90;;;;;;5032847;28;20448;-89
2022/01/31 06:44:07;;;;;;;6.47;3.67;;;5.20;99.90;;;;;;5035003;28;20888;-90
2022/01/31 06:46:33;;;;;;;13.53;4.80;;;5.10;99.90;;;;;;5033488;28;20492;-88
2022/01/31 06:49:06;;;;;;;6.00;3.80;;;5.10;99.90;;;;;;5034839;28;20445;-90
2022/01/31 06:51:33;;;;;;;12.27;4.37;;;5.00;99.90;;;;;;5034152;28;20453;-89
2022/01/31 06:54:01;;;;;;;6.73;4.80;;;5.00;99.90;;;;;;5035958;28;20445;-88
2022/01/31 06:56:31;;;;;;;9.57;4.60;;;4.90;99.90;;;;;;5035087;28;20492;-90
2022/01/31 06:58:59;;;;;;;7.67;4.40;;;4.90;99.90;;;;;;5031635;28;20446;-83
2022/01/31 07:01:26;;;;;;;9.23;3.93;;;4.90;99.90;;;;;;5042106;28;20452;-83
2022/01/31 07:03:54;;;;;;;13.30;5.43;;;4.90;99.90;;;;;;5041818;28;20449;-82
2022/01/31 07:06:21;;;;;;;6.37;4.67;;;4.90;99.90;;;;;;5056694;28;20471;-86
2022/01/31 07:08:48;;;;;;;7.93;4.87;;;4.90;99.90;;;;;;5047626;28;20437;-86
2022/01/31 07:11:20;;;;;;;8.73;4.83;;;4.90;99.90;;;;;;5055021;28;20449;-87
2022/01/31 07:13:49;;;;;;;11.10;4.50;;;4.90;99.90;;;;;;5036631;28;20449;-87
2022/01/31 07:16:17;;;;;;;8.97;4.03;;;4.90;99.90;;;;;;5039756;28;20922;-87
2022/01/31 07:18:45;;;;;;;9.50;4.33;;;5.00;99.90;;;;;;5036437;28;20453;-88
2022/01/31 07:21:14;;;;;;;7.60;4.17;;;5.00;99.90;;;;;;5034662;28;21004;-87
2022/01/31 07:24:03;;;;;;;6.10;3.90;;;5.00;99.90;;;;;;5035405;28;20540;-85
2022/01/31 07:26:29;;;;;;;8.33;5.53;;;5.00;99.90;;;;;;5047894;28;21000;-88
2022/01/31 07:28:56;;;;;;;6.77;4.63;;;5.00;99.90;;;;;;5055115;28;20426;-85
2022/01/31 07:31:24;;;;;;;5.70;4.43;;;5.00;99.90;;;;;;5046687;28;20820;-87
2022/01/31 07:33:51;;;;;;;9.67;4.27;;;5.00;99.90;;;;;;5042697;28;20453;-88
2022/01/31 07:36:18;;;;;;;9.63;4.30;;;5.00;99.90;;;;;;5040687;28;20460;-87
2022/01/31 07:38:44;;;;;;;10.47;4.37;;;5.00;99.90;;;;;;5038615;28;20472;-87
2022/01/31 07:41:14;;;;;;;6.43;3.80;;;5.00;99.90;;;;;;5036270;28;20472;-88
2022/01/31 07:43:43;;;;;;;4.90;3.17;;;5.00;99.90;;;;;;5035855;28;20491;-87
2022/01/31 07:46:11;;;;;;;8.83;4.00;;;5.00;99.90;;;;;;5036019;28;20484;-88
2022/01/31 07:48:39;;;;;;;8.53;4.00;;;5.10;99.90;;;;;;5039534;28;20454;-87
2022/01/31 07:51:05;;;;;;;4.60;4.03;;;5.10;99.90;;;;;;5041182;28;20449;-87
2022/01/31 07:53:32;;;;;;;9.37;3.70;;;5.10;99.90;;;;;;5057514;28;20429;-85
2022/01/31 07:56:00;;;;;;;5.70;3.10;;;5.10;99.90;;;;;;5042101;28;20840;-88
2022/01/31 07:58:27;;;;;;;5.83;3.87;;;5.10;99.90;;;;;;5038319;28;20459;-87
2022/01/31 08:00:54;;;;;;;5.17;4.33;;;5.20;99.90;;;;;;5054103;28;20439;-86
2022/01/31 08:03:21;;;;;;;5.10;2.60;;;5.20;99.90;;;;;;5057704;28;20429;-87
2022/01/31 08:05:49;;;;;;;3.77;2.83;;;5.20;99.90;;;;;;5051919;28;20516;-87
2022/01/31 08:08:16;;;;;;;4.17;2.90;;;5.20;99.90;;;;;;5057779;28;20433;-87
2022/01/31 08:10:43;;;;;;;2.60;2.37;;;5.20;99.90;;;;;;5057359;28;20481;-86
2022/01/31 08:13:10;;;;;;;6.10;2.30;;;5.20;99.90;;;;;;5048342;28;20453;-87
2022/01/31 08:15:46;;;;;;;4.63;2.60;;;5.20;99.90;;;;;;5053237;28;20457;-87
2022/01/31 08:18:13;;;;;;;5.70;2.23;;;5.30;99.90;;;;;;5049945;28;20460;-86
2022/01/31 08:20:40;;;;;;;4.83;2.30;;;5.30;99.90;;;;;;5044426;28;20460;-84
2022/01/31 08:23:10;;;;;;;3.47;1.93;;;5.40;99.90;;;;;;5047870;28;20445;-87
2022/01/31 08:25:37;;;;;;;4.37;2.50;;;5.40;99.90;;;;;;5035845;28;20576;-88
2022/01/31 08:28:09;;;;;;;2.43;2.23;;;5.50;99.90;;;;;;5035870;28;20460;-87
2022/01/31 08:30:43;;;;;;;2.40;1.50;;;5.50;99.90;;;;;;5044169;28;20448;-87
2022/01/31 08:33:25;;;;;;;2.67;1.70;;;5.50;99.90;;;;;;5044204;28;20574;-88
2022/01/31 08:35:52;;;;;;;2.13;1.60;;;5.60;99.90;;;;;;5032729;28;20978;-88
2022/01/31 08:38:20;;;;;;;2.47;1.50;;;5.60;99.90;;;;;;5045564;28;20454;-87
2022/01/31 08:40:47;;;;;;;1.23;1.10;;;5.70;99.90;;;;;;5045082;28;20444;-87
2022/01/31 08:43:17;;;;;;;2.03;1.70;;;5.90;99.90;;;;;;5043836;28;20457;-88
2022/01/31 08:45:44;;;;;;;2.23;1.43;;;6.00;99.90;;;;;;5038407;28;20559;-86
2022/01/31 08:48:11;;;;;;;4.20;2.40;;;6.20;99.90;;;;;;5039061;28;20449;-85
2022/01/31 08:50:38;;;;;;;2.40;1.40;;;6.20;99.90;;;;;;5039457;28;20872;-88
2022/01/31 08:53:05;;;;;;;1.60;1.13;;;6.20;99.90;;;;;;5038782;28;20449;-87
2022/01/31 08:55:35;;;;;;;1.50;1.40;;;6.30;99.90;;;;;;5037891;28;20483;-87
2022/01/31 08:58:02;;;;;;;1.17;0.90;;;6.40;99.90;;;;;;5038957;28;20441;-86
2022/01/31 09:00:34;;;;;;;2.20;1.60;;;6.60;99.90;;;;;;5048903;28;20453;-86
2022/01/31 09:03:16;;;;;;;1.10;0.80;;;6.70;99.90;;;;;;5054462;28;20445;-86
2022/01/31 09:05:43;;;;;;;1.47;1.17;;;6.90;99.90;;;;;;5040039;28;20481;-88
2022/01/31 09:08:10;;;;;;;1.50;1.13;;;7.10;99.90;;;;;;5038173;28;20503;-87
2022/01/31 09:10:39;;;;;;;2.27;1.20;;;7.20;99.90;;;;;;5037267;28;20792;-87
2022/01/31 09:13:06;;;;;;;3.40;1.67;;;7.40;99.90;;;;;;5037958;28;20457;-87
2022/01/31 09:15:33;;;;;;;2.83;1.43;;;7.60;99.90;;;;;;5050238;28;20448;-86
2022/01/31 09:18:00;;;;;;;1.97;1.60;;;7.80;99.90;;;;;;5056344;28;20457;-86
2022/01/31 09:20:27;;;;;;;3.03;1.20;;;8.20;99.90;;;;;;5049570;28;20441;-86
2022/01/31 09:22:53;;;;;;;3.33;1.20;;;8.90;99.90;;;;;;5053139;28;20445;-87
2022/01/31 09:25:20;;;;;;;1.33;1.13;;;9.20;99.90;;;;;;5044228;28;20477;-87
2022/01/31 09:27:48;;;;;;;3.67;1.40;;;9.30;99.90;;;;;;5050476;28;20465;-87
2022/01/31 09:30:15;;;;;;;1.43;1.03;;;9.40;99.40;;;;;;5049605;28;20440;-87
2022/01/31 09:32:41;;;;;;;3.20;1.40;;;9.30;98.80;;;;;;5039435;28;20445;-87
2022/01/31 09:35:08;;;;;;;1.90;1.30;;;8.80;98.50;;;;;;5048092;28;20901;-85
2022/01/31 09:37:35;;;;;;;2.47;1.97;;;8.80;99.30;;;;;;5050553;28;20693;-87
2022/01/31 09:40:04;;;;;;;2.40;1.57;;;8.90;99.60;;;;;;5037001;28;20445;-87
2022/01/31 09:42:37;;;;;;;3.93;1.80;;;9.00;98.80;;;;;;5036904;28;20449;-87
2022/01/31 09:45:15;;;;;;;1.57;1.47;;;8.90;98.20;;;;;;5034990;28;20480;-87
2022/01/31 09:50:27;;;;;;;2.60;2.00;;;9.00;97.90;;;;;;5003552;28;20453;-87
2022/01/31 09:52:54;;;;;;;4.33;2.07;;;9.30;97.20;;;;;;5041737;28;20449;-87
2022/01/31 09:55:21;;;;;;;2.47;1.70;;;9.20;97.00;;;;;;5036384;28;20473;-88
2022/01/31 09:57:48;;;;;;;3.00;1.50;;;9.10;96.90;;;;;;5056275;28;20433;-86
2022/01/31 10:00:17;;;;;;;4.57;1.57;;;8.90;97.00;;;;;;5057687;28;20445;-86
2022/01/31 10:03:05;;;;;;;2.17;1.70;;;8.70;97.50;;;;;;5057121;28;20456;-86
2022/01/31 10:05:31;;;;;;;3.10;1.50;;;8.50;97.60;;;;;;5048972;28;20526;-87
2022/01/31 10:08:10;;;;;;;4.17;1.80;;;8.20;97.90;;;;;;5045577;28;20934;-86
2022/01/31 10:10:40;;;;;;;4.27;1.90;;;8.00;97.60;;;;;;5039146;28;20460;-87
2022/01/31 10:16:27;;;;;;;2.63;1.50;;;7.70;98.50;;;;;;5034593;28;20452;-87
2022/01/31 10:19:02;;;;;;;2.37;1.47;;;7.60;98.70;;;;;;5035043;28;20503;-87
2022/01/31 10:21:29;;;;;;;2.53;1.83;;;7.60;98.90;;;;;;5034295;28;20449;-87
2022/01/31 10:23:55;;;;;;;3.40;2.00;;;7.70;99.30;;;;;;5033895;28;20524;-87
2022/01/31 10:26:33;;;;;;;4.13;1.83;;;7.80;98.90;;;;;;5025354;28;21002;-87
2022/01/31 10:29:10;;;;;;;2.80;2.13;;;7.80;98.90;;;;;;5038452;28;20440;-88
2022/01/31 10:31:39;;;;;;;3.20;1.50;;;7.80;99.00;;;;;;5041179;28;20433;-86
2022/01/31 10:34:20;;;;;;;4.87;2.07;;;7.80;98.80;;;;;;5030409;28;20454;-86
2022/01/31 10:36:49;;;;;;;3.90;1.80;;;7.80;98.30;;;;;;5032337;28;20477;-87
2022/01/31 10:43:23;;;;;;;6.30;2.10;;;7.80;98.50;;;;;;5035576;28;20450;-87
2022/01/31 10:45:27;;;;;;;6.90;2.30;;;8.00;98.20;;;;;;5034683;28;20513;-87
2022/01/31 10:51:22;;;;;;;4.70;2.00;;;8.00;97.50;;;;;;5029973;28;20452;-89
2022/01/31 10:53:55;;;;;;;2.67;1.40;;;8.10;97.40;;;;;;5028316;28;20958;-89
2022/01/31 10:56:22;;;;;;;3.33;2.07;;;8.10;96.80;;;;;;5031861;28;20441;-89
2022/01/31 10:58:58;;;;;;;3.67;1.90;;;8.20;96.70;;;;;;5012154;28;20469;-90
2022/01/31 11:01:26;;;;;;;6.40;2.20;;;8.30;96.40;;;;;;5010837;28;20541;-90
2022/01/31 11:03:56;;;;;;;3.97;1.77;;;8.40;96.10;;;;;;5007224;28;20476;-90
2022/01/31 11:06:24;;;;;;;3.73;1.40;;;8.30;96.10;;;;;;5012320;28;20477;-89
2022/01/31 11:08:51;;;;;;;2.87;1.50;;;8.10;96.50;;;;;;5012992;28;20470;-90
2022/01/31 11:11:18;;;;;;;4.23;1.47;;;8.10;97.00;;;;;;5011554;28;20558;-89
2022/01/31 11:13:48;;;;;;;4.50;2.20;;;8.10;96.90;;;;;;5015351;28;20438;-90
2022/01/31 11:16:15;;;;;;;4.60;2.90;;;8.10;97.40;;;;;;5011101;28;21019;-90
2022/01/31 11:18:44;;;;;;;3.23;1.90;;;8.20;97.50;;;;;;5015803;28;20461;-90
2022/01/31 11:21:13;;;;;;;7.57;4.57;;;8.20;97.20;;;;;;5018737;28;20453;-90
2022/01/31 11:23:43;;;;;;;8.70;4.40;;;8.40;97.00;;;;;;5019050;28;20891;-88
2022/01/31 11:26:12;;;;;;;6.00;2.40;;;8.70;96.40;;;;;;5013730;28;20479;-90
2022/01/31 11:28:41;;;;;;;6.93;2.43;;;9.20;96.10;;;;;;5014892;28;20457;-89
2022/01/31 11:31:08;;;;;;;8.70;2.77;;;9.30;94.80;;;;;;5018346;28;20442;-89
2022/01/31 11:33:36;;;;;;;4.63;1.80;;;9.00;94.60;;;;;;5013237;28;20537;-90
2022/01/31 11:36:03;;;;;;;3.63;1.87;;;8.70;95.00;;;;;;5015887;28;20500;-90
2022/01/31 11:38:33;;;;;;;5.43;1.87;;;8.60;95.40;;;;;;5019101;28;20493;-89
2022/01/31 11:41:05;;;;;;;2.00;1.67;;;8.40;95.70;;;;;;5017404;28;20943;-90
2022/01/31 11:43:33;;;;;;;4.17;1.83;;;8.20;95.80;;;;;;5034626;28;20450;-89
2022/01/31 11:46:01;;;;;;;5.57;3.10;;;8.10;96.60;;;;;;5027467;28;20454;-88
2022/01/31 11:48:30;;;;;;;6.60;2.67;;;8.00;97.20;;;;;;5021735;28;20509;-90
2022/01/31 11:51:03;;;;;;;2.97;1.93;;;7.90;97.70;;;;;;5036453;28;20426;-88
2022/01/31 11:53:33;;;;;;;3.70;2.80;;;7.90;97.80;;;;;;5035455;28;20434;-90
2022/01/31 11:56:04;;;;;;;3.23;1.63;;;7.80;98.40;;;;;;5026754;28;20496;-89
2022/01/31 11:58:34;;;;;;;3.63;2.10;;;7.60;98.30;;;;;;5035086;28;20462;-89
2022/01/31 12:01:02;;;;;;;5.33;2.40;;;7.50;98.60;;;;;;5034516;28;20435;-90
2022/01/31 12:03:30;;;;;;;11.83;3.70;;;7.40;98.90;;;;;;5038105;28;20450;-89
2022/01/31 12:05:58;;;;;;;8.70;4.00;;;7.30;98.90;;;;;;5034697;28;20442;-89
2022/01/31 12:08:41;;;;;;;6.73;2.37;;;7.30;99.00;;;;;;5021149;28;20466;-91
2022/01/31 12:11:13;;;;;;;4.20;2.00;;;7.30;99.00;;;;;;5020537;28;20465;-91
2022/01/31 12:13:49;;;;;;;3.40;2.10;;;7.20;99.10;;;;;;5019309;28;20450;-90
2022/01/31 12:16:45;;;;;;;3.33;1.67;;;7.20;99.60;;;;;;5016841;28;20454;-90
2022/01/31 12:22:44;;;;;;;4.90;2.53;;;7.10;99.90;;;;;;5012804;28;20445;-92
2022/01/31 12:25:32;;;;;;;6.00;3.33;;;7.10;99.90;;;;;;5005834;28;20489;-91
2022/01/31 12:28:19;;;;;;;5.00;2.93;;;7.10;99.80;;;;;;5010023;28;20490;-89
2022/01/31 12:30:47;;;;;;;7.33;3.40;;;7.20;99.80;;;;;;5017311;28;20446;-90
2022/01/31 12:33:40;;;;;;;8.90;3.83;;;7.40;99.40;;;;;;5016778;28;20447;-91
2022/01/31 12:36:25;;;;;;;5.30;2.53;;;7.50;99.10;;;;;;5029673;28;20454;-92
2022/01/31 12:38:52;;;;;;;3.30;2.20;;;7.40;99.30;;;;;;5016667;28;20477;-91
2022/01/31 12:41:32;;;;;;;6.13;2.67;;;7.30;99.50;;;;;;5015561;28;20439;-90
2022/01/31 12:44:34;;;;;;;4.30;2.80;;;7.30;99.60;;;;;;5016827;28;20504;-89
2022/01/31 12:47:08;;;;;;;2.93;1.87;;;7.30;99.90;;;;;;4997272;28;20509;-89
2022/01/31 12:49:35;;;;;;;6.23;2.13;;;7.30;99.80;;;;;;5013100;28;20521;-89
2022/01/31 12:52:04;;;;;;;4.13;2.33;;;7.20;99.80;;;;;;5026764;28;20473;-91
2022/01/31 12:54:34;;;;;;;4.13;1.97;;;7.20;99.90;;;;;;5029102;28;20443;-88
2022/01/31 12:57:09;;;;;;;1.60;1.30;;;7.20;99.90;;;;;;5028141;28;20478;-90
2022/01/31 12:59:39;;;;;;;3.43;1.97;;;7.10;99.90;;;;;;5029583;28;20829;-91
2022/01/31 13:02:10;;;;;;;4.93;1.60;;;7.20;99.90;;;;;;5030443;28;20454;-90
2022/01/31 13:04:38;;;;;;;3.40;1.60;;;7.10;99.90;;;;;;5035348;28;20510;-88
2022/01/31 13:07:10;;;;;;;3.77;1.60;;;7.10;99.90;;;;;;5038569;28;20730;-90
2022/01/31 13:09:43;;;;;;;2.37;1.70;;;7.10;99.90;;;;;;5033930;28;20493;-88
2022/01/31 13:12:18;;;;;;;3.17;2.17;;;7.10;99.90;;;;;;5029958;28;20446;-91
2022/01/31 13:14:49;;;;;;;2.90;1.53;;;7.20;99.90;;;;;;5024808;28;20517;-90
2022/01/31 13:17:19;;;;;;;2.67;1.90;;;7.10;99.90;;;;;;5026685;28;20470;-88
2022/01/31 13:19:48;;;;;;;5.10;2.33;;;7.00;99.90;;;;;;5023242;28;20442;-91
2022/01/31 13:22:18;;;;;;;6.97;2.93;;;7.10;99.90;;;;;;5025011;28;20446;-89
2022/01/31 13:24:49;;;;;;;5.63;3.40;;;7.00;99.90;;;;;;5024219;28;20453;-89
2022/01/31 13:27:19;;;;;;;6.50;3.93;;;6.90;99.90;;;;;;5005890;28;20486;-88
2022/01/31 13:29:48;;;;;;;5.73;3.10;;;6.80;99.90;;;;;;5023050;28;20449;-88
2022/01/31 13:32:25;;;;;;;4.90;2.97;;;6.80;99.90;;;;;;5033868;28;20470;-90
2022/01/31 13:34:56;;;;;;;3.87;1.90;;;6.70;99.90;;;;;;5035959;28;20462;-88
2022/01/31 13:37:38;;;;;;;3.77;1.80;;;6.60;99.90;;;;;;5037341;28;20446;-90
2022/01/31 13:40:10;;;;;;;7.23;5.37;;;6.60;99.90;;;;;;5030439;28;20434;-87
2022/01/31 13:42:38;;;;;;;6.23;3.30;;;6.60;99.90;;;;;;5029228;28;20540;-90
2022/01/31 13:45:13;;;;;;;4.77;2.40;;;6.70;99.90;;;;;;5037166;28;20451;-87
2022/01/31 13:47:47;;;;;;;7.63;4.53;;;6.70;99.90;;;;;;5031706;28;20486;-89
2022/01/31 13:50:21;;;;;;;8.30;2.53;;;6.80;99.90;;;;;;5034940;28;20625;-90
2022/01/31 13:52:58;;;;;;;7.07;2.60;;;6.90;99.90;;;;;;5025191;28;20453;-92
2022/01/31 13:55:27;;;;;;;3.50;2.43;;;7.10;99.90;;;;;;5030678;28;20433;-92
2022/01/31 13:57:56;;;;;;;4.80;1.90;;;7.20;99.90;;;;;;5015889;28;20904;-91
2022/01/31 14:00:24;;;;;;;5.03;2.87;;;7.30;99.90;;;;;;5020779;28;20869;-92
2022/01/31 14:03:12;;;;;;;4.23;2.20;;;7.50;99.80;;;;;;5015942;28;20956;-89
2022/01/31 14:05:48;;;;;;;1.73;1.37;;;7.60;99.90;;;;;;5015326;28;20457;-91
2022/01/31 14:08:18;;;;;;;4.20;1.50;;;7.50;99.40;;;;;;5017012;28;20504;-89
2022/01/31 14:10:46;;;;;;;5.80;2.70;;;7.40;99.50;;;;;;5015804;28;20488;-93
2022/01/31 14:13:17;;;;;;;4.47;2.47;;;7.20;99.90;;;;;;5018653;28;20951;-91
2022/01/31 14:15:47;;;;;;;4.43;1.80;;;7.00;99.90;;;;;;5019877;28;20875;-92
2022/01/31 14:18:17;;;;;;;10.23;2.30;;;6.90;99.90;;;;;;5013391;28;20842;-90
2022/01/31 14:20:45;;;;;;;3.67;1.67;;;6.80;99.90;;;;;;5024375;28;20457;-90
2022/01/31 14:23:12;;;;;;;3.43;1.87;;;6.70;99.90;;;;;;5029410;28;20454;-90
2022/01/31 14:25:42;;;;;;;3.27;1.60;;;6.70;99.90;;;;;;5028019;28;20463;-91
2022/01/31 14:28:10;;;;;;;4.80;1.20;;;6.60;99.90;;;;;;5029406;28;20482;-91
2022/01/31 14:30:46;;;;;;;4.70;1.90;;;6.60;99.90;;;;;;5019340;28;20971;-89
2022/01/31 14:33:12;;;;;;;2.10;0.93;;;6.60;99.90;;;;;;5020494;28;20460;-90
2022/01/31 14:35:41;;;;;;;2.10;1.23;;;6.70;99.90;;;;;;5022603;28;20485;-91
2022/01/31 14:38:16;;;;;;;5.63;1.50;;;6.70;99.90;;;;;;5018485;28;20462;-89
2022/01/31 14:49:05;;;;;;;4.13;1.70;;;6.70;99.80;;;;;;5020146;28;20472;-91
2022/01/31 14:51:35;;;;;;;2.93;1.83;;;6.70;99.90;;;;;;5021887;28;20454;-88
2022/01/31 14:54:04;;;;;;;4.03;1.40;;;6.60;99.90;;;;;;5025355;28;21030;-90
2022/01/31 14:56:31;;;;;;;7.10;1.80;;;6.50;99.90;;;;;;5024490;28;20456;-89
2022/01/31 14:58:59;;;;;;;3.90;2.50;;;6.40;99.90;;;;;;5026801;28;20457;-88
2022/01/31 15:01:26;;;;;;;5.13;1.80;;;6.30;99.90;;;;;;5018373;28;20453;-89
2022/01/31 15:03:53;;;;;;;5.03;1.90;;;6.10;99.90;;;;;;5018073;28;21062;-89
2022/01/31 15:06:20;;;;;;;4.57;1.70;;;6.10;99.90;;;;;;5020260;28;20504;-90
2022/01/31 15:08:49;;;;;;;5.70;2.87;;;5.90;99.90;;;;;;5020971;28;20485;-91
2022/01/31 15:11:16;;;;;;;2.73;1.83;;;5.80;99.90;;;;;;5023261;28;20452;-90
2022/01/31 15:13:44;;;;;;;3.90;2.20;;;5.70;99.90;;;;;;5022311;28;20977;-89
2022/01/31 15:16:14;;;;;;;7.63;3.40;;;5.50;99.90;;;;;;5020140;28;20457;-89
2022/01/31 15:18:41;;;;;;;10.97;4.50;;;5.40;99.90;;;;;;5020540;28;20477;-88
2022/01/31 15:21:11;;;;;;;6.40;3.33;;;5.40;99.90;;;;;;5022359;28;20450;-86
2022/01/31 15:23:41;;;;;;;10.23;2.87;;;5.40;99.90;;;;;;5021105;28;20477;-87
2022/01/31 15:26:11;;;;;;;6.30;3.17;;;5.40;99.90;;;;;;5029093;28;20454;-87
2022/01/31 15:28:41;;;;;;;7.23;3.53;;;5.40;99.90;;;;;;5041427;28;20576;-87
2022/01/31 15:31:08;;;;;;;6.20;4.00;;;5.40;99.90;;;;;;5030072;28;20504;-87
2022/01/31 15:33:36;;;;;;;6.07;2.23;;;5.30;99.90;;;;;;5029652;28;20450;-88
2022/01/31 15:36:03;;;;;;;4.77;2.03;;;5.30;99.90;;;;;;5034984;28;20457;-88
2022/01/31 15:38:31;;;;;;;4.03;2.20;;;5.30;99.90;;;;;;5035957;28;20477;-88
2022/01/31 15:40:58;;;;;;;3.83;2.10;;;5.30;99.90;;;;;;5013437;28;20809;-88
2022/01/31 15:43:29;;;;;;;5.30;2.57;;;5.30;99.90;;;;;;5025708;28;20978;-87
2022/01/31 15:45:56;;;;;;;9.57;3.40;;;5.20;99.90;;;;;;5020187;28;20465;-87
2022/01/31 15:48:23;;;;;;;14.30;4.73;;;5.20;99.90;;;;;;5019877;28;20493;-87
2022/01/31 15:50:49;;;;;;;8.10;3.43;;;5.30;99.90;;;;;;5021651;28;20928;-87
2022/01/31 15:53:16;;;;;;;11.57;3.90;;;5.20;99.90;;;;;;5017063;28;20450;-88
2022/01/31 15:55:44;;;;;;;5.33;3.10;;;5.20;99.90;;;;;;5022474;28;21114;-87
2022/01/31 15:58:12;;;;;;;7.40;3.93;;;5.20;99.90;;;;;;5029344;28;20476;-87
2022/01/31 16:00:41;;;;;;;4.80;2.77;;;5.20;99.90;;;;;;5034791;28;20454;-88
2022/01/31 16:03:11;;;;;;;3.77;2.30;;;5.20;99.90;;;;;;5026715;28;20457;-86
2022/01/31 16:05:38;;;;;;;9.13;3.80;;;5.30;99.90;;;;;;5028984;28;20446;-86
2022/01/31 16:08:05;;;;;;;5.70;2.73;;;5.30;99.90;;;;;;5021980;28;20486;-87
2022/01/31 16:10:32;;;;;;;5.63;2.60;;;5.20;99.90;;;;;;5020220;28;20477;-86
2022/01/31 16:13:03;;;;;;;2.83;2.03;;;5.30;99.90;;;;;;5017267;28;20560;-86
2022/01/31 16:15:30;;;;;;;14.73;3.10;;;5.20;99.90;;;;;;5018610;28;20450;-87
2022/01/31 16:17:59;;;;;;;7.50;3.40;;;5.20;99.90;;;;;;5015308;28;20485;-85
2022/01/31 16:20:30;;;;;;;5.43;2.70;;;5.30;99.90;;;;;;5012571;28;20478;-86
2022/01/31 16:22:57;;;;;;;5.90;2.77;;;5.30;99.90;;;;;;5016049;28;20453;-84
2022/01/31 16:25:24;;;;;;;8.77;3.27;;;5.30;99.90;;;;;;5013395;28;21194;-84
2022/01/31 16:27:51;;;;;;;11.07;3.60;;;5.30;99.90;;;;;;5011497;28;20478;-86
2022/01/31 16:30:20;;;;;;;5.80;2.40;;;5.20;99.90;;;;;;5013136;28;20470;-83
2022/01/31 16:32:47;;;;;;;7.47;2.70;;;5.30;99.90;;;;;;5015895;28;21013;-90
2022/01/31 16:35:16;;;;;;;9.73;2.90;;;5.30;99.90;;;;;;5015553;28;20452;-92
2022/01/31 16:37:45;;;;;;;8.77;4.20;;;5.30;99.90;;;;;;5018793;28;21002;-90
2022/01/31 16:40:13;;;;;;;6.10;3.10;;;5.30;99.90;;;;;;5018749;28;20473;-91
2022/01/31 16:42:40;;;;;;;7.13;2.83;;;5.30;99.90;;;;;;5016476;28;20947;-92
2022/01/31 16:45:08;;;;;;;6.70;3.10;;;5.30;99.90;;;;;;5014184;28;20531;-91
2022/01/31 16:47:39;;;;;;;6.03;2.70;;;5.40;99.90;;;;;;5016525;28;20485;-91
2022/01/31 16:50:07;;;;;;;11.17;2.87;;;5.40;99.90;;;;;;5014804;28;20458;-92
2022/01/31 16:52:36;;;;;;;4.97;2.90;;;5.40;99.90;;;;;;5020959;28;20422;-92
2022/01/31 16:55:04;;;;;;;4.53;2.17;;;5.40;99.90;;;;;;5021700;28;20446;-91
2022/01/31 16:57:30;;;;;;;5.73;2.30;;;5.40;99.90;;;;;;5014949;28;20470;-92
2022/01/31 16:59:57;;;;;;;7.23;2.33;;;5.50;99.90;;;;;;5015144;28;20470;-91
2022/01/31 17:02:24;;;;;;;7.43;2.40;;;5.50;99.90;;;;;;5014539;28;20453;-92
2022/01/31 17:04:51;;;;;;;7.53;2.13;;;5.50;99.90;;;;;;5013613;28;20451;-93
2022/01/31 17:07:18;;;;;;;10.90;4.07;;;5.50;99.90;;;;;;5014986;28;20480;-91
2022/01/31 17:09:46;;;;;;;9.57;3.43;;;5.60;99.90;;;;;;5015325;28;20520;-92
2022/01/31 17:12:15;;;;;;;5.90;2.37;;;5.60;99.90;;;;;;5014810;28;20464;-90
2022/01/31 17:14:42;;;;;;;5.90;2.53;;;5.70;99.90;;;;;;5015627;28;21005;-91
2022/01/31 17:17:11;;;;;;;4.23;2.47;;;5.60;99.90;;;;;;5013807;28;20470;-90
2022/01/31 17:19:38;;;;;;;10.10;2.93;;;5.70;99.90;;;;;;5015036;28;20939;-90
2022/01/31 17:22:05;;;;;;;4.53;2.20;;;5.70;99.90;;;;;;5022041;28;20441;-91